Time;durP1;ratioP1;P1;durP2;ratioP2;P2;SDS_P1;SDS_P2;PMS_P1;PMS_P2;Temp;Humidity;BMP_temperature;BMP_pressure;BME280_temperature;BME280_humidity;BME280_pressure;Samples;Min_cycle;Max_cycle;Signal;HPM_P1;HPM_P2
2022/04/07 00:00:44;;;;;;;3.85;2.80;;;10.40;99.90;;;;;;2071410;28;20041;-69
2022/04/07 00:01:45;;;;;;;5.85;2.83;;;10.40;99.90;;;;;;2071665;28;20026;-69
2022/04/07 00:02:46;;;;;;;4.97;3.10;;;10.40;99.90;;;;;;2072418;28;20053;-69
2022/04/07 00:03:47;;;;;;;3.85;3.05;;;10.30;99.90;;;;;;2072117;28;20030;-69
2022/04/07 00:04:48;;;;;;;4.10;2.90;;;10.40;99.90;;;;;;2072387;28;20060;-69
2022/04/07 00:05:48;;;;;;;5.70;3.25;;;10.30;99.90;;;;;;2072234;28;20026;-69
2022/04/07 00:06:49;;;;;;;5.47;3.42;;;10.30;99.90;;;;;;2072374;28;20069;-69
2022/04/07 00:07:50;;;;;;;4.20;3.08;;;10.40;99.90;;;;;;2072120;28;20041;-68
2022/04/07 00:08:50;;;;;;;4.75;3.20;;;10.40;99.90;;;;;;2072006;28;20026;-70
2022/04/07 00:09:51;;;;;;;5.13;2.90;;;10.30;99.90;;;;;;2072029;28;20374;-70
2022/04/07 00:10:52;;;;;;;5.00;3.20;;;10.30;99.90;;;;;;2071383;28;20034;-70
2022/04/07 00:11:53;;;;;;;5.50;3.20;;;10.30;99.90;;;;;;2071540;28;20659;-69
2022/04/07 00:12:53;;;;;;;4.13;3.03;;;10.30;99.90;;;;;;2072387;28;20088;-67
2022/04/07 00:13:54;;;;;;;4.30;3.00;;;10.30;99.90;;;;;;2072021;28;20497;-68
2022/04/07 00:14:55;;;;;;;4.47;3.03;;;10.30;99.90;;;;;;2072074;28;20033;-69
2022/04/07 00:15:59;;;;;;;3.40;2.72;;;10.30;99.90;;;;;;2071964;28;20025;-68
2022/04/07 00:17:00;;;;;;;5.43;3.30;;;10.20;99.90;;;;;;2071317;28;20030;-68
2022/04/07 00:18:00;;;;;;;5.07;3.00;;;10.20;99.90;;;;;;2071644;28;20021;-69
2022/04/07 00:19:01;;;;;;;4.15;2.80;;;10.20;99.90;;;;;;2072073;28;20117;-68
2022/04/07 00:20:03;;;;;;;4.75;3.17;;;10.20;99.90;;;;;;2071945;28;20030;-69
2022/04/07 00:21:11;;;;;;;4.57;3.05;;;10.20;99.90;;;;;;2071287;28;20079;-72
2022/04/07 00:22:12;;;;;;;5.40;3.13;;;10.20;99.90;;;;;;2071719;28;20044;-68
2022/04/07 00:23:13;;;;;;;4.93;3.40;;;10.20;99.90;;;;;;2071942;28;20030;-68
2022/04/07 00:24:13;;;;;;;6.80;3.45;;;10.20;99.90;;;;;;2072332;28;20429;-68
2022/04/07 00:25:14;;;;;;;7.43;3.60;;;10.20;99.90;;;;;;2072225;28;20223;-68
2022/04/07 00:26:15;;;;;;;3.55;3.20;;;10.20;99.90;;;;;;2072297;28;20108;-69
2022/04/07 00:27:16;;;;;;;5.72;3.35;;;10.20;99.90;;;;;;2071846;28;20560;-69
2022/04/07 00:28:17;;;;;;;7.40;3.42;;;10.20;99.90;;;;;;2072015;28;20501;-69
2022/04/07 00:29:17;;;;;;;5.75;3.53;;;10.10;99.90;;;;;;2072233;28;20034;-71
2022/04/07 00:30:20;;;;;;;5.78;3.25;;;10.20;99.90;;;;;;2071787;28;20034;-69
2022/04/07 00:31:21;;;;;;;5.57;3.72;;;10.20;99.90;;;;;;2071360;28;20030;-69
2022/04/07 00:32:21;;;;;;;4.97;3.55;;;10.20;99.90;;;;;;2071211;28;20127;-69
2022/04/07 00:33:22;;;;;;;4.93;3.38;;;10.20;99.90;;;;;;2070928;28;20069;-69
2022/04/07 00:34:23;;;;;;;5.63;3.30;;;10.20;99.90;;;;;;2079334;28;20029;-68
2022/04/07 00:35:26;;;;;;;3.45;3.13;;;10.20;99.90;;;;;;2071199;28;20038;-69
2022/04/07 00:36:27;;;;;;;4.57;3.55;;;10.20;99.90;;;;;;2071190;28;20446;-69
2022/04/07 00:37:28;;;;;;;4.97;3.42;;;10.30;99.90;;;;;;2071892;28;20053;-68
2022/04/07 00:38:28;;;;;;;4.78;3.20;;;10.30;99.90;;;;;;2071835;28;20021;-69
2022/04/07 00:39:29;;;;;;;5.65;3.20;;;10.30;99.90;;;;;;2071875;28;20056;-70
2022/04/07 00:40:30;;;;;;;4.57;3.40;;;10.30;99.90;;;;;;2079233;28;20025;-69
2022/04/07 00:41:31;;;;;;;4.32;3.45;;;10.30;99.90;;;;;;2079543;28;20025;-69
2022/04/07 00:42:32;;;;;;;5.57;3.13;;;10.30;99.90;;;;;;2071457;28;20091;-69
2022/04/07 00:43:35;;;;;;;4.57;3.10;;;10.20;99.90;;;;;;2071716;28;20030;-69
2022/04/07 00:44:35;;;;;;;5.57;3.28;;;10.20;99.90;;;;;;2071933;28;20102;-68
2022/04/07 00:45:36;;;;;;;5.22;3.20;;;10.20;99.90;;;;;;2071129;28;20144;-69
2022/04/07 00:46:39;;;;;;;5.35;3.25;;;10.10;99.90;;;;;;2054672;28;20031;-69
2022/04/07 00:47:39;;;;;;;4.13;3.38;;;10.10;99.90;;;;;;2063410;28;20026;-68
2022/04/07 00:48:40;;;;;;;5.25;3.45;;;10.20;99.90;;;;;;2079379;28;20033;-69
2022/04/07 00:49:41;;;;;;;4.55;3.20;;;10.10;99.90;;;;;;2079405;28;20021;-68
2022/04/07 00:50:41;;;;;;;4.07;3.08;;;10.20;99.90;;;;;;2071808;28;20131;-68
2022/04/07 00:51:43;;;;;;;6.82;3.30;;;10.20;99.90;;;;;;2071144;28;20544;-68
2022/04/07 00:52:55;;;;;;;5.13;3.30;;;10.20;99.90;;;;;;2071201;28;20026;-68
2022/04/07 00:53:57;;;;;;;7.43;3.47;;;10.30;99.90;;;;;;2078079;28;20040;-68
2022/04/07 00:54:59;;;;;;;5.72;3.45;;;10.20;99.90;;;;;;2071598;28;20563;-68
2022/04/07 00:56:01;;;;;;;3.88;3.35;;;10.30;99.90;;;;;;2072058;28;20091;-69
2022/04/07 00:57:02;;;;;;;5.30;3.58;;;10.30;99.90;;;;;;2071301;28;20144;-69
2022/04/07 00:58:03;;;;;;;5.57;3.60;;;10.30;99.90;;;;;;2071123;28;20096;-68
2022/04/07 00:59:07;;;;;;;5.70;3.67;;;10.30;99.90;;;;;;2071787;28;20092;-68
2022/04/07 01:00:10;;;;;;;6.05;3.67;;;10.30;99.90;;;;;;2071910;28;20417;-67
2022/04/07 01:01:10;;;;;;;6.30;3.80;;;10.30;99.90;;;;;;2071685;28;20022;-68
2022/04/07 01:02:11;;;;;;;7.05;3.72;;;10.40;99.90;;;;;;2071873;28;20061;-69
2022/04/07 01:03:12;;;;;;;4.63;3.20;;;10.40;99.90;;;;;;2070881;28;20029;-69
2022/04/07 01:04:13;;;;;;;4.82;3.35;;;10.40;99.90;;;;;;2071188;28;20480;-67
2022/04/07 01:05:13;;;;;;;5.85;3.55;;;10.40;99.90;;;;;;2071183;28;20030;-68
2022/04/07 01:06:14;;;;;;;4.80;3.20;;;10.40;99.90;;;;;;2071050;28;20065;-68
2022/04/07 01:07:15;;;;;;;5.43;3.30;;;10.40;99.90;;;;;;2070874;28;20069;-68
2022/04/07 01:08:16;;;;;;;5.25;3.70;;;10.40;99.90;;;;;;2070932;28;20036;-68
2022/04/07 01:09:18;;;;;;;4.22;3.10;;;10.40;99.90;;;;;;2071596;28;20034;-68
2022/04/07 01:10:20;;;;;;;4.10;3.30;;;10.40;99.90;;;;;;2070924;28;20099;-68
2022/04/07 01:11:22;;;;;;;5.13;3.40;;;10.40;99.90;;;;;;2070920;28;20026;-68
2022/04/07 01:12:22;;;;;;;7.28;3.63;;;10.40;99.90;;;;;;2071511;28;20437;-68
2022/04/07 01:13:23;;;;;;;6.47;3.20;;;10.30;99.90;;;;;;2071168;28;20057;-68
2022/04/07 01:14:23;;;;;;;5.13;3.17;;;10.40;99.90;;;;;;2071577;28;20037;-69
2022/04/07 01:15:24;;;;;;;5.70;3.10;;;10.30;99.90;;;;;;2071454;28;20034;-69
2022/04/07 01:16:29;;;;;;;4.25;3.35;;;10.40;99.90;;;;;;2071017;28;20030;-69
2022/04/07 01:17:31;;;;;;;5.40;3.40;;;10.40;99.90;;;;;;2071086;28;20026;-69
2022/04/07 01:18:32;;;;;;;4.05;3.05;;;10.40;99.90;;;;;;2071549;28;20132;-70
2022/04/07 01:19:32;;;;;;;5.25;3.30;;;10.40;99.90;;;;;;2071481;28;20041;-69
2022/04/07 01:20:33;;;;;;;5.88;3.35;;;10.40;99.90;;;;;;2071449;28;20094;-70
2022/04/07 01:21:37;;;;;;;5.82;3.33;;;10.40;99.90;;;;;;2071497;28;20022;-69
2022/04/07 01:22:40;;;;;;;5.20;3.22;;;10.40;99.90;;;;;;2071509;28;20033;-69
2022/04/07 01:23:50;;;;;;;4.93;3.10;;;10.40;99.90;;;;;;2071177;28;20041;-69
2022/04/07 01:24:51;;;;;;;4.68;3.08;;;10.40;99.90;;;;;;2071558;28;20018;-68
2022/04/07 01:25:52;;;;;;;6.60;3.40;;;10.50;99.90;;;;;;2071394;28;20591;-69
2022/04/07 01:26:53;;;;;;;6.00;3.38;;;10.50;99.90;;;;;;2071142;28;20112;-69
2022/04/07 01:27:54;;;;;;;4.68;3.45;;;10.50;99.90;;;;;;2071500;28;20026;-69
2022/04/07 01:28:56;;;;;;;5.00;3.10;;;10.40;99.90;;;;;;2071534;28;20084;-69
2022/04/07 01:30:00;;;;;;;4.15;3.10;;;10.40;99.90;;;;;;2071393;28;20022;-69
2022/04/07 01:31:00;;;;;;;4.88;3.20;;;10.40;99.90;;;;;;2071560;28;20033;-68
2022/04/07 01:32:10;;;;;;;4.97;3.10;;;10.30;99.90;;;;;;2071391;28;20030;-68
2022/04/07 01:33:12;;;;;;;4.90;3.22;;;10.40;99.90;;;;;;2071262;28;20045;-68
2022/04/07 01:34:14;;;;;;;6.43;3.40;;;10.40;99.90;;;;;;2071762;28;20033;-68
2022/04/07 01:35:15;;;;;;;5.55;3.50;;;10.30;99.90;;;;;;2071658;28;20036;-68
2022/04/07 01:36:17;;;;;;;5.72;3.30;;;10.30;99.90;;;;;;2071034;28;20429;-68
2022/04/07 01:37:18;;;;;;;5.28;3.35;;;10.30;99.90;;;;;;2071008;28;20034;-69
2022/04/07 01:38:20;;;;;;;4.63;3.03;;;10.30;99.90;;;;;;2071460;28;20393;-68
2022/04/07 01:39:25;;;;;;;6.20;3.83;;;10.30;99.90;;;;;;2071728;28;20527;-68
2022/04/07 01:40:33;;;;;;;4.78;3.08;;;10.30;99.90;;;;;;2071346;28;20359;-68
2022/04/07 01:41:35;;;;;;;5.97;3.30;;;10.30;99.90;;;;;;2078930;28;20029;-67
2022/04/07 01:42:37;;;;;;;4.60;3.28;;;10.30;99.90;;;;;;2078750;28;20022;-68
2022/04/07 01:43:39;;;;;;;3.72;3.15;;;10.30;99.90;;;;;;2078693;28;20025;-68
2022/04/07 01:44:46;;;;;;;4.65;3.05;;;10.20;99.90;;;;;;2079139;28;20025;-67
2022/04/07 01:45:47;;;;;;;4.88;3.05;;;10.20;99.90;;;;;;2071689;28;20062;-68
2022/04/07 01:46:48;;;;;;;4.18;3.10;;;10.30;99.90;;;;;;2071228;28;20034;-68
2022/04/07 01:47:51;;;;;;;5.28;3.25;;;10.30;99.90;;;;;;2071581;28;20500;-68
2022/04/07 01:48:53;;;;;;;5.13;3.30;;;10.30;99.90;;;;;;2071494;28;20408;-68
2022/04/07 01:50:06;;;;;;;5.93;3.15;;;10.30;99.90;;;;;;2071449;28;20443;-67
2022/04/07 01:51:10;;;;;;;5.68;3.20;;;10.20;99.90;;;;;;2070857;28;20057;-67
2022/04/07 01:52:12;;;;;;;4.30;3.13;;;10.20;99.90;;;;;;2070871;28;20092;-68
2022/04/07 01:53:13;;;;;;;5.75;3.20;;;10.20;99.90;;;;;;2071389;28;20080;-68
2022/04/07 01:54:15;;;;;;;4.38;3.08;;;10.20;99.90;;;;;;2072358;28;20037;-67
2022/04/07 01:55:16;;;;;;;6.30;3.22;;;10.20;99.90;;;;;;2072363;28;20033;-67
2022/04/07 01:56:18;;;;;;;4.72;3.13;;;10.20;99.90;;;;;;2080540;28;20030;-68
2022/04/07 01:57:23;;;;;;;4.70;2.97;;;10.20;99.90;;;;;;2072212;28;20052;-68
2022/04/07 01:58:24;;;;;;;3.72;2.85;;;10.10;99.90;;;;;;2072434;28;20029;-68
2022/04/07 01:59:26;;;;;;;4.32;2.97;;;10.10;99.90;;;;;;2073583;28;20095;-68
2022/04/07 02:00:27;;;;;;;4.28;3.20;;;10.10;99.90;;;;;;2072281;28;20030;-68
2022/04/07 02:01:27;;;;;;;4.97;3.20;;;10.10;99.90;;;;;;2072816;28;20424;-68
2022/04/07 02:02:28;;;;;;;4.38;3.10;;;10.00;99.90;;;;;;2081973;28;20022;-68
2022/04/07 02:03:29;;;;;;;4.45;2.92;;;10.00;99.90;;;;;;2074690;28;20914;-68
2022/04/07 02:04:29;;;;;;;5.57;3.10;;;10.00;99.90;;;;;;2073118;28;20022;-68
2022/04/07 02:05:30;;;;;;;5.32;3.00;;;10.00;99.90;;;;;;2073009;28;20026;-68
2022/04/07 02:06:30;;;;;;;4.45;3.10;;;10.00;99.90;;;;;;2072818;28;20032;-68
2022/04/07 02:07:32;;;;;;;5.05;3.20;;;10.00;99.90;;;;;;2072815;28;20034;-68
2022/04/07 02:08:33;;;;;;;5.32;3.05;;;10.00;99.90;;;;;;2073198;28;20497;-68
2022/04/07 02:09:33;;;;;;;3.80;2.88;;;10.00;99.90;;;;;;2072929;28;20037;-68
2022/04/07 02:10:34;;;;;;;4.40;2.88;;;10.00;99.90;;;;;;2072708;28;20033;-68
2022/04/07 02:11:35;;;;;;;5.22;3.20;;;9.90;99.90;;;;;;2064031;28;20030;-69
2022/04/07 02:12:37;;;;;;;5.13;2.90;;;9.90;99.90;;;;;;2064281;28;20529;-68
2022/04/07 02:13:39;;;;;;;4.63;3.10;;;9.90;99.90;;;;;;2072715;28;20489;-68
2022/04/07 02:14:40;;;;;;;3.55;3.00;;;9.90;99.90;;;;;;2073020;28;20030;-68
2022/04/07 02:15:42;;;;;;;4.25;2.90;;;9.90;99.90;;;;;;2072912;28;20396;-69
2022/04/07 02:16:43;;;;;;;5.28;2.92;;;9.80;99.90;;;;;;2072857;28;20149;-69
2022/04/07 02:17:43;;;;;;;4.47;2.72;;;9.90;99.90;;;;;;2073006;28;20491;-69
2022/04/07 02:18:44;;;;;;;4.63;3.00;;;9.90;99.90;;;;;;2072830;28;20112;-68
2022/04/07 02:19:45;;;;;;;4.72;3.13;;;9.80;99.90;;;;;;2072880;28;20030;-68
2022/04/07 02:20:45;;;;;;;5.18;2.90;;;9.80;99.90;;;;;;2072566;28;20021;-68
2022/04/07 02:21:46;;;;;;;3.67;2.80;;;9.80;99.90;;;;;;2072969;28;20052;-68
2022/04/07 02:22:47;;;;;;;4.75;3.05;;;9.80;99.90;;;;;;2072636;28;20037;-69
2022/04/07 02:23:48;;;;;;;3.88;2.78;;;9.80;99.90;;;;;;2072378;28;20033;-68
2022/04/07 02:24:49;;;;;;;4.18;2.85;;;9.90;99.90;;;;;;2080312;28;20029;-68
2022/04/07 02:25:49;;;;;;;4.20;2.70;;;9.90;99.90;;;;;;2080444;28;20084;-68
2022/04/07 02:26:50;;;;;;;4.15;3.03;;;9.90;99.90;;;;;;2072906;28;20041;-68
2022/04/07 02:27:51;;;;;;;6.90;3.00;;;9.90;99.90;;;;;;2072800;28;20477;-68
2022/04/07 02:28:51;;;;;;;6.45;3.13;;;9.90;99.90;;;;;;2072848;28;20508;-68
2022/04/07 02:29:52;;;;;;;3.13;2.83;;;9.90;99.90;;;;;;2072861;28;20816;-68
2022/04/07 02:30:53;;;;;;;5.32;3.05;;;9.90;99.90;;;;;;2072749;28;20115;-68
2022/04/07 02:31:53;;;;;;;5.40;3.08;;;9.90;99.90;;;;;;2080380;28;20485;-68
2022/04/07 02:32:54;;;;;;;5.22;3.08;;;9.90;99.90;;;;;;2080237;28;20477;-68
2022/04/07 02:33:54;;;;;;;4.28;2.78;;;9.90;99.90;;;;;;2072570;28;20671;-68
2022/04/07 02:34:56;;;;;;;7.05;3.03;;;9.90;99.90;;;;;;2072009;28;20038;-68
2022/04/07 02:35:57;;;;;;;4.13;2.90;;;9.90;99.90;;;;;;2072328;28;20014;-68
2022/04/07 02:36:57;;;;;;;4.70;2.85;;;10.00;99.90;;;;;;2072702;28;20212;-68
2022/04/07 02:38:01;;;;;;;3.80;2.70;;;10.00;99.90;;;;;;2072801;28;20024;-68
2022/04/07 02:39:02;;;;;;;5.13;3.17;;;10.00;99.90;;;;;;2072684;28;20425;-68
2022/04/07 02:40:03;;;;;;;3.67;2.90;;;10.00;99.90;;;;;;2071846;28;20030;-68
2022/04/07 02:41:05;;;;;;;4.50;2.97;;;10.00;99.90;;;;;;2072050;28;20033;-69
2022/04/07 02:42:05;;;;;;;5.13;3.22;;;10.00;99.90;;;;;;2072118;28;20133;-69
2022/04/07 02:43:06;;;;;;;3.55;2.92;;;9.90;99.90;;;;;;2071641;28;20025;-69
2022/04/07 02:44:06;;;;;;;4.38;2.92;;;10.00;99.90;;;;;;2072596;28;20036;-69
2022/04/07 02:45:08;;;;;;;3.88;3.15;;;10.00;99.90;;;;;;2072358;28;20057;-69
2022/04/07 02:46:10;;;;;;;5.07;2.60;;;10.00;99.90;;;;;;2072733;28;20030;-69
2022/04/07 02:47:11;;;;;;;4.97;2.88;;;10.00;99.90;;;;;;2072685;28;20080;-69
2022/04/07 02:48:12;;;;;;;3.95;2.90;;;10.10;99.90;;;;;;2072669;28;20034;-68
2022/04/07 02:49:12;;;;;;;4.03;2.60;;;10.00;99.90;;;;;;2080130;28;20041;-69
2022/04/07 02:50:13;;;;;;;5.07;2.85;;;10.00;99.90;;;;;;2080101;28;20646;-69
2022/04/07 02:51:15;;;;;;;7.15;3.10;;;10.00;99.90;;;;;;2072056;28;20489;-69
2022/04/07 02:52:15;;;;;;;3.50;2.83;;;10.00;99.90;;;;;;2072066;28;20740;-68
2022/04/07 02:53:16;;;;;;;5.60;2.90;;;10.10;99.90;;;;;;2072029;28;20137;-69
2022/04/07 02:54:17;;;;;;;5.13;3.00;;;10.00;99.90;;;;;;2072085;28;20053;-71
2022/04/07 02:55:17;;;;;;;5.68;2.80;;;10.10;99.90;;;;;;2071997;28;20537;-69
2022/04/07 02:56:18;;;;;;;5.03;2.70;;;10.10;99.90;;;;;;2072648;28;20022;-69
2022/04/07 02:57:23;;;;;;;4.47;2.72;;;10.10;99.90;;;;;;2072422;28;20100;-68
2022/04/07 02:58:23;;;;;;;4.38;2.70;;;10.00;99.90;;;;;;2071800;28;20034;-69
2022/04/07 02:59:24;;;;;;;6.47;3.15;;;10.00;99.90;;;;;;2071906;28;20104;-68
2022/04/07 03:00:25;;;;;;;5.05;2.83;;;10.00;99.90;;;;;;2072516;28;20040;-69
2022/04/07 03:01:26;;;;;;;5.00;3.05;;;10.00;99.90;;;;;;2072503;28;20041;-69
2022/04/07 03:02:27;;;;;;;4.35;3.10;;;10.00;99.90;;;;;;2072571;28;20025;-69
2022/04/07 03:03:28;;;;;;;5.15;2.72;;;10.10;99.90;;;;;;2072198;28;20065;-69
2022/04/07 03:04:28;;;;;;;5.90;2.67;;;10.10;99.90;;;;;;2072241;28;20394;-69
2022/04/07 03:05:29;;;;;;;4.13;2.75;;;10.00;99.90;;;;;;2071453;28;20057;-69
2022/04/07 03:06:30;;;;;;;4.45;3.15;;;10.00;99.90;;;;;;2072051;28;20033;-68
2022/04/07 03:07:30;;;;;;;4.63;2.65;;;10.00;99.90;;;;;;2072586;28;20038;-69
2022/04/07 03:08:33;;;;;;;4.07;2.80;;;10.00;99.90;;;;;;2072440;28;20026;-68
2022/04/07 03:09:34;;;;;;;3.58;2.60;;;10.00;99.90;;;;;;2072540;28;20034;-68
2022/04/07 03:10:34;;;;;;;3.90;2.60;;;9.90;99.90;;;;;;2072350;28;20065;-68
2022/04/07 03:11:35;;;;;;;6.05;2.80;;;9.90;99.90;;;;;;2071881;28;20034;-68
2022/04/07 03:12:37;;;;;;;3.95;2.67;;;9.90;99.90;;;;;;2071856;28;20053;-68
2022/04/07 03:13:38;;;;;;;4.47;2.72;;;9.90;99.90;;;;;;2071489;28;20030;-70
2022/04/07 03:14:40;;;;;;;4.03;3.08;;;9.90;99.90;;;;;;2071741;28;20033;-70
2022/04/07 03:15:40;;;;;;;4.78;2.90;;;9.90;99.90;;;;;;2071781;28;20632;-70
2022/04/07 03:16:42;;;;;;;3.60;2.80;;;9.90;99.90;;;;;;2071560;28;20034;-69
2022/04/07 03:17:42;;;;;;;6.05;3.10;;;9.80;99.90;;;;;;2072271;28;20073;-68
2022/04/07 03:18:43;;;;;;;4.35;2.92;;;9.80;99.90;;;;;;2072116;28;20030;-69
2022/04/07 03:19:43;;;;;;;6.65;2.88;;;9.80;99.90;;;;;;2072238;28;20054;-69
2022/04/07 03:20:44;;;;;;;3.88;2.72;;;9.80;99.90;;;;;;2072203;28;20513;-70
2022/04/07 03:21:45;;;;;;;3.83;2.78;;;9.80;99.90;;;;;;2072481;28;20018;-70
2022/04/07 03:22:45;;;;;;;3.83;2.72;;;9.70;99.90;;;;;;2072227;28;20117;-69
2022/04/07 03:23:46;;;;;;;4.10;2.80;;;9.70;99.90;;;;;;2071966;28;20038;-70
2022/04/07 03:24:46;;;;;;;5.28;2.90;;;9.70;99.90;;;;;;2072240;28;20026;-69
2022/04/07 03:25:47;;;;;;;7.32;3.03;;;9.70;99.90;;;;;;2072284;28;20029;-69
2022/04/07 03:26:47;;;;;;;4.80;2.90;;;9.70;99.90;;;;;;2072207;28;20030;-69
2022/04/07 03:27:48;;;;;;;3.35;2.70;;;9.80;99.90;;;;;;2072373;28;20026;-69
2022/04/07 03:28:49;;;;;;;4.10;2.88;;;9.70;99.90;;;;;;2072258;28;20042;-69
2022/04/07 03:29:49;;;;;;;4.82;2.80;;;9.80;99.90;;;;;;2071697;28;20026;-69
2022/04/07 03:30:50;;;;;;;4.10;3.08;;;9.80;99.90;;;;;;2071749;28;20037;-69
2022/04/07 03:31:50;;;;;;;4.78;3.10;;;9.80;99.90;;;;;;2072330;28;20088;-69
2022/04/07 03:32:51;;;;;;;4.22;2.97;;;9.80;99.90;;;;;;2072156;28;20030;-69
2022/04/07 03:33:52;;;;;;;3.92;2.90;;;9.80;99.90;;;;;;2071937;28;20044;-69
2022/04/07 03:34:52;;;;;;;3.88;2.85;;;9.70;99.90;;;;;;2071493;28;20060;-69
2022/04/07 03:35:53;;;;;;;4.47;2.80;;;9.70;99.90;;;;;;2071629;28;20092;-69
2022/04/07 03:36:54;;;;;;;4.95;2.90;;;9.60;99.90;;;;;;2072151;28;20029;-68
2022/04/07 03:37:55;;;;;;;4.10;3.03;;;9.70;99.90;;;;;;2079705;28;20493;-69
2022/04/07 03:38:55;;;;;;;3.95;3.00;;;9.70;99.90;;;;;;2079832;28;20061;-69
2022/04/07 03:39:56;;;;;;;6.25;2.92;;;9.70;99.90;;;;;;2072107;28;20022;-69
2022/04/07 03:40:56;;;;;;;3.83;3.03;;;9.70;99.90;;;;;;2072360;28;20021;-69
2022/04/07 03:41:57;;;;;;;6.13;3.00;;;9.70;99.90;;;;;;2072058;28;20363;-68
2022/04/07 03:42:58;;;;;;;5.82;3.20;;;9.70;99.90;;;;;;2072239;28;20176;-69
2022/04/07 03:43:59;;;;;;;6.30;3.30;;;9.80;99.90;;;;;;2071872;28;20025;-69
2022/04/07 03:44:59;;;;;;;10.68;3.90;;;9.70;99.90;;;;;;2071616;28;20033;-69
2022/04/07 03:46:00;;;;;;;5.60;2.90;;;9.70;99.90;;;;;;2071538;28;20060;-69
2022/04/07 03:47:00;;;;;;;3.95;3.10;;;9.70;99.90;;;;;;2072004;28;20573;-69
2022/04/07 03:48:01;;;;;;;5.05;3.10;;;9.70;99.90;;;;;;2072274;28;20025;-69
2022/04/07 03:49:02;;;;;;;6.15;2.97;;;9.80;99.90;;;;;;2072219;28;20210;-69
2022/04/07 03:50:03;;;;;;;4.60;3.00;;;9.80;99.90;;;;;;2072413;28;20040;-69
2022/04/07 03:51:03;;;;;;;4.95;3.10;;;9.80;99.90;;;;;;2073266;28;20026;-69
2022/04/07 03:52:04;;;;;;;4.70;3.20;;;9.80;99.90;;;;;;2073380;28;20104;-69
2022/04/07 03:53:05;;;;;;;4.70;3.15;;;9.80;99.90;;;;;;2072658;28;20026;-69
2022/04/07 03:54:06;;;;;;;5.38;2.90;;;9.80;99.90;;;;;;2073395;28;20065;-69
2022/04/07 03:55:07;;;;;;;4.88;2.80;;;9.80;99.90;;;;;;2072971;28;20101;-69
2022/04/07 03:56:08;;;;;;;5.78;3.10;;;9.80;99.90;;;;;;2072333;28;20065;-70
2022/04/07 03:57:08;;;;;;;3.88;2.85;;;9.70;99.90;;;;;;2073068;28;20410;-70
2022/04/07 03:58:09;;;;;;;4.25;2.65;;;9.70;99.90;;;;;;2072132;28;20037;-69
2022/04/07 03:59:09;;;;;;;5.47;2.80;;;9.80;99.90;;;;;;2071565;28;20021;-70
2022/04/07 04:00:11;;;;;;;3.75;3.10;;;9.70;99.90;;;;;;2071294;28;20037;-69
2022/04/07 04:01:14;;;;;;;4.43;2.75;;;9.70;99.90;;;;;;2071507;28;20049;-70
2022/04/07 04:02:15;;;;;;;3.25;2.60;;;9.70;99.90;;;;;;2071338;28;20038;-69
2022/04/07 04:03:15;;;;;;;3.72;2.70;;;9.70;99.90;;;;;;2062893;28;20032;-70
2022/04/07 04:04:20;;;;;;;4.57;2.83;;;9.70;99.90;;;;;;2071594;28;20521;-70
2022/04/07 04:05:20;;;;;;;4.30;2.53;;;9.60;99.90;;;;;;2071299;28;20050;-69
2022/04/07 04:06:21;;;;;;;4.40;2.90;;;9.60;99.90;;;;;;2071429;28;20029;-68
2022/04/07 04:07:22;;;;;;;4.35;2.88;;;9.50;99.90;;;;;;2071934;28;20037;-68
2022/04/07 04:08:22;;;;;;;9.32;3.13;;;9.60;99.90;;;;;;2071387;28;20045;-68
2022/04/07 04:09:23;;;;;;;2.92;2.63;;;9.60;99.90;;;;;;2071426;28;20160;-69
2022/04/07 04:10:24;;;;;;;4.63;3.08;;;9.60;99.90;;;;;;2072062;28;20448;-69
2022/04/07 04:11:25;;;;;;;4.93;2.90;;;9.60;99.90;;;;;;2071341;28;20032;-69
2022/04/07 04:12:26;;;;;;;5.43;2.80;;;9.60;99.90;;;;;;2071511;28;20030;-69
2022/04/07 04:13:28;;;;;;;4.75;2.95;;;9.60;99.90;;;;;;2071790;28;20026;-68
2022/04/07 04:14:29;;;;;;;3.25;2.80;;;9.60;99.90;;;;;;2063247;28;20030;-69
2022/04/07 04:15:30;;;;;;;5.55;3.03;;;9.60;99.90;;;;;;2063105;28;20042;-69
2022/04/07 04:16:38;;;;;;;4.78;3.10;;;9.60;99.90;;;;;;2072075;28;20112;-69
2022/04/07 04:17:38;;;;;;;3.97;2.75;;;9.60;99.90;;;;;;2071801;28;20032;-69
2022/04/07 04:18:43;;;;;;;5.00;2.80;;;9.60;99.90;;;;;;2071549;28;20041;-70
2022/04/07 04:19:43;;;;;;;5.53;2.70;;;9.60;99.90;;;;;;2071256;28;20137;-69
2022/04/07 04:20:47;;;;;;;5.78;2.80;;;9.50;99.90;;;;;;2071464;28;20025;-70
2022/04/07 04:21:48;;;;;;;8.00;3.00;;;9.50;99.90;;;;;;2071556;28;20563;-69
2022/04/07 04:22:51;;;;;;;7.75;3.10;;;9.60;99.90;;;;;;2071402;28;20030;-71
2022/04/07 04:23:52;;;;;;;10.18;3.33;;;9.60;99.90;;;;;;2070961;28;20041;-71
2022/04/07 04:24:53;;;;;;;10.00;2.80;;;9.60;99.90;;;;;;2071552;28;20056;-69
2022/04/07 04:25:53;;;;;;;9.52;3.08;;;9.70;99.90;;;;;;2063444;28;20133;-69
2022/04/07 04:26:56;;;;;;;7.97;2.80;;;9.70;99.90;;;;;;2063417;28;20041;-69
2022/04/07 04:27:57;;;;;;;7.18;2.92;;;9.70;99.90;;;;;;2072270;28;20084;-67
2022/04/07 04:28:57;;;;;;;4.63;2.63;;;9.70;99.90;;;;;;2072224;28;20712;-69
2022/04/07 04:29:58;;;;;;;5.50;2.70;;;9.80;99.90;;;;;;2071963;28;20054;-71
2022/04/07 04:31:02;;;;;;;5.55;2.95;;;9.80;99.90;;;;;;2071413;28;20026;-71
2022/04/07 04:32:02;;;;;;;5.38;3.60;;;9.90;99.90;;;;;;2071588;28;20037;-69
2022/04/07 04:33:03;;;;;;;3.67;2.53;;;9.90;99.90;;;;;;2079596;28;20041;-71
2022/04/07 04:34:04;;;;;;;5.22;2.50;;;9.90;99.90;;;;;;2079970;28;20026;-69
2022/04/07 04:35:05;;;;;;;3.55;2.72;;;10.00;99.90;;;;;;2071950;28;20034;-70
2022/04/07 04:36:10;;;;;;;3.97;2.90;;;9.90;99.90;;;;;;2072253;28;20010;-70
2022/04/07 04:37:10;;;;;;;2.92;2.50;;;9.90;99.90;;;;;;2071248;28;20030;-70
2022/04/07 04:38:13;;;;;;;3.17;2.67;;;10.00;99.90;;;;;;2071772;28;20075;-70
2022/04/07 04:39:14;;;;;;;6.28;2.85;;;10.00;99.90;;;;;;2072323;28;20049;-69
2022/04/07 04:40:18;;;;;;;3.53;2.70;;;9.90;99.90;;;;;;2072302;28;20776;-71
2022/04/07 04:41:19;;;;;;;4.10;2.58;;;9.90;99.90;;;;;;2072291;28;20492;-72
2022/04/07 04:42:20;;;;;;;6.35;2.75;;;10.00;99.90;;;;;;2072022;28;20041;-71
2022/04/07 04:43:26;;;;;;;3.42;2.47;;;10.00;99.90;;;;;;2062991;28;20072;-70
2022/04/07 04:44:27;;;;;;;3.10;2.60;;;10.00;99.90;;;;;;2064290;28;20585;-70
2022/04/07 04:45:28;;;;;;;4.53;2.60;;;10.00;99.90;;;;;;2071365;28;20038;-71
2022/04/07 04:46:28;;;;;;;4.57;2.70;;;10.00;99.90;;;;;;2071177;28;20429;-72
2022/04/07 04:47:30;;;;;;;4.03;2.50;;;10.00;99.90;;;;;;2063259;28;20222;-71
2022/04/07 04:48:31;;;;;;;3.97;2.75;;;10.00;99.90;;;;;;2063261;28;20537;-69
2022/04/07 04:49:31;;;;;;;5.50;2.70;;;10.00;99.90;;;;;;2071156;28;20041;-67
2022/04/07 04:50:35;;;;;;;4.90;2.70;;;10.00;99.90;;;;;;2071408;28;20033;-67
2022/04/07 04:51:35;;;;;;;4.15;2.72;;;10.00;99.90;;;;;;2071572;28;20065;-67
2022/04/07 04:52:36;;;;;;;5.22;2.50;;;10.00;99.90;;;;;;2071768;28;20034;-67
2022/04/07 04:53:36;;;;;;;4.78;2.70;;;10.00;99.90;;;;;;2079161;28;20029;-66
2022/04/07 04:54:38;;;;;;;3.97;2.90;;;10.10;99.90;;;;;;2079157;28;20484;-67
2022/04/07 04:55:39;;;;;;;7.15;2.58;;;10.10;99.90;;;;;;2079253;28;20029;-67
2022/04/07 04:56:41;;;;;;;5.60;2.53;;;10.10;99.90;;;;;;2079425;28;20594;-66
2022/04/07 04:57:41;;;;;;;3.30;2.35;;;10.10;99.90;;;;;;2071066;28;20033;-68
2022/04/07 04:58:42;;;;;;;3.75;2.50;;;10.20;99.90;;;;;;2070894;28;20092;-69
2022/04/07 04:59:43;;;;;;;3.10;2.42;;;10.20;99.90;;;;;;2071501;28;20454;-68
2022/04/07 05:00:43;;;;;;;3.53;2.40;;;10.20;99.90;;;;;;2071459;28;20088;-70
2022/04/07 05:01:44;;;;;;;4.60;2.50;;;10.30;99.90;;;;;;2073531;28;20033;-71
2022/04/07 05:02:48;;;;;;;3.63;2.40;;;10.30;99.90;;;;;;2073516;28;20065;-69
2022/04/07 05:03:49;;;;;;;5.10;2.38;;;10.40;99.90;;;;;;2065456;28;20026;-69
2022/04/07 05:04:50;;;;;;;5.93;2.58;;;10.40;99.90;;;;;;2073323;28;20473;-68
2022/04/07 05:05:51;;;;;;;3.08;2.20;;;10.40;99.90;;;;;;2071189;28;20481;-68
2022/04/07 05:06:55;;;;;;;4.15;2.50;;;10.50;99.90;;;;;;2071499;28;20124;-70
2022/04/07 05:07:55;;;;;;;2.50;2.13;;;10.60;99.90;;;;;;2071100;28;20076;-68
2022/04/07 05:08:56;;;;;;;3.40;2.40;;;10.70;99.90;;;;;;2071215;28;20030;-69
2022/04/07 05:09:57;;;;;;;3.03;2.05;;;10.70;99.90;;;;;;2070656;28;20389;-69
2022/04/07 05:10:58;;;;;;;4.38;2.10;;;10.80;99.90;;;;;;2070783;28;20041;-68
2022/04/07 05:11:58;;;;;;;5.00;2.17;;;10.90;99.90;;;;;;2071264;28;20033;-68
2022/04/07 05:12:59;;;;;;;3.30;2.17;;;10.90;99.90;;;;;;2070955;28;20105;-71
2022/04/07 05:14:04;;;;;;;3.92;2.20;;;10.90;99.90;;;;;;2062746;28;20667;-69
2022/04/07 05:15:06;;;;;;;4.78;2.30;;;10.90;99.90;;;;;;2071466;28;20041;-69
2022/04/07 05:16:15;;;;;;;2.58;2.05;;;11.00;99.90;;;;;;2079039;28;20030;-69
2022/04/07 05:17:21;;;;;;;3.47;2.50;;;11.00;99.90;;;;;;2071620;28;20105;-68
2022/04/07 05:18:24;;;;;;;2.83;2.20;;;11.00;99.90;;;;;;2071608;28;20029;-69
2022/04/07 05:19:28;;;;;;;3.53;2.05;;;11.00;99.90;;;;;;2079838;28;20063;-69
2022/04/07 05:20:31;;;;;;;2.35;2.15;;;11.00;99.90;;;;;;2079744;28;20567;-69
2022/04/07 05:21:33;;;;;;;2.75;2.00;;;11.00;99.90;;;;;;2071949;28;20038;-70